AirNav   Duncan Aviation - Near you to keep you flying
 
 608 users online  

CO15 Kelly Air Park
Elbert, Colorado, USA

GOING TO ELBERT?


FAA INFORMATION EFFECTIVE 30 DECEMBER 2021

Location

FAA Identifier: CO15
Lat/Long: 39-13-28.8000N 104-38-23.6400W
39-13.480000N 104-38.394000W
39.2246667,-104.6399000
(estimated)
Elevation: 7040 ft. / 2146 m (estimated)
Variation: 11E (1985)
From city: 6 miles W of ELBERT, CO
Time zone: UTC -7 (UTC -6 during Daylight Saving Time)
Zip code: 80106

Airport Operations

Airport use: Private use. Permission required prior to landing
Activation date: 11/1988
Control tower: no
ARTCC: DENVER CENTER
FSS: DENVER FLIGHT SERVICE STATION
Attendance: UNATNDD
Wind indicator: yes
Segmented circle: yes

Airport Communications

UNICOM: 123.05
WX AWOS-3PT at FLY (17 nm S): 118.450 (719-683-5371)

Nearby radio navigation aids

VOR radial/distance  VOR name  Freq  Var
BRKr351/16.8BLACK FOREST VOR/DME112.5008E
FQFr171/27.9FALCON VORTAC116.3011E
FCSr357/33.1BUTTS VOR/DME108.8012E
DENr170/35.3DENVER VOR/DME117.9008E

 
NDB name  Hdg/Dist  Freq  Var  ID
IRONHORSE001/33.233508EIHS .. .... ...

Airport Services

Runway Information

Runway 17/35

Dimensions: 3800 x 36 ft. / 1158 x 11 m
Surface: asphalt
RUNWAY 17  RUNWAY 35
Traffic pattern: leftright

Runway 9/27

Dimensions: 1700 x 50 ft. / 518 x 15 m
Surface: turf
Operational restrictions: RY 09 NOT RECOMMENDED FOR TAKEOFF OR LANDING.
RUNWAY 9  RUNWAY 27
Traffic pattern: rightleft

Airport Ownership and Management from official FAA records

Ownership: Privately-owned
Owner: KELLY AIR PARK ASSN
24652 DAVID C JOHNSON LOOP
ELBERT, CO 80106-9512
Phone 303-648-3461
OR 303-648-0056.
Manager: FRANK NIEHUS
24652 DAVID C JOHNSON LOOP
ELBERT, CO 80106-9512
Phone (303) 648-3461

Airport Operational Statistics

Aircraft based on the field: 54
Single engine airplanes: 30
Gliders airplanes: 24
    

Additional Remarks

GLIDER ACTIVITY ON & INVOF ARPT.
WX AWOS AT MONUMENT HILL ON SITE: 134.375 (303-648-3479).
ULTRALIGHT ACTIVITY PROHIBITED
FOR CD CTC DENVER APCH AT 303-342-1916.

Instrument Procedures

There are no published instrument procedures at CO15.

Some nearby airports with instrument procedures:

KAPA - Centennial Airport (23 nm NW)
KCOS - City of Colorado Springs Municipal Airport (25 nm S)
KBKF - Buckley Space Force Base (29 nm N)
KCFO - Colorado Air and Space Port Airport (34 nm N)
KDEN - Denver International Airport (38 nm N)
 
Loc | Ops | Rwys | IFR | FBO | Links
Com | Nav | Svcs | Stats | Notes

AirBoss

 
Area around CO15 (Kelly Air Park)
 
Road maps at: MapQuest Bing Google
 
Aerial photo
WARNING: Photo may not be current or correct
Aerial photo of CO15 (Kelly Air Park)
Taken early June 2010

Do you have a better or more recent aerial photo of Kelly Air Park that you would like to share? If so, please send us your photo.

 
Sectional chart

 
Airport distance calculator
Flying to Kelly Air Park? Find the distance to fly.

From to CO15

Sunrise and sunset
Times for 26-Jan-2022
 Local
(UTC-7)
 Zulu
(UTC)
Morning civil twilight06:4313:43
Sunrise07:1114:11
Sunset17:1100:11
Evening civil twilight17:4000:40

Current date and time
Zulu (UTC)  27-Jan-2022 05:46:01
Local (UTC-7)  26-Jan-2022 22:46:01
 
METAR
KMNH 270535Z AUTO 14006KT 10SM SCT120 M06/M14 A3011 RMK AO2
KFLY 
17nm S 
270535Z AUTO 21003KT 10SM OVC110 M06/M14 A3012 RMK AO2 T10581143
KAFF 
18nm SW 
270458Z AUTO 00000KT 10SM CLR M06/M14 A3008 RMK AO2 SLP236 T10651136
TAF
KAFF 
18nm SW 
262000Z 2620/2802 36012KT 9999 SKC QNH2990INS BECMG 2709/2710 VRB06KT 9999 VCSH BKN025 610259 QNH3003INS BECMG 2713/2714 35015G25KT 4800 -SHSN BKN015 BKN050 610159 520005 QNH3016INS BECMG 2715/2716 35015G25KT 1600 -SN SCT010 BKN015 OVC030 620159 520005 QNH3021INS BECMG 2722/2723 35012G18KT 9999 NSW SCT025 QNH3031INS TX07/2622Z TNM09/2710Z LAST NO AMDS AFT 2700 NEXT 2712
NOTAMs
Click for the latest NOTAMs
NOTAMs are issued by the DoD/FAA and will open in a separate window not controlled by AirNav.

 

 
 

Would you like to see your business listed on this page?

 If your business provides an interesting product or service to pilots, flight crews, aircraft, or users of the Kelly Air Park, you should consider listing it here.  To start the listing process, click on the button below
 
Add a business
 

Other Pages about Kelly Air Park

www.kellyairpark.com
 
Update a link
 
Copyright © AirNav, LLC. All rights reserved. Privacy Policy  Contact